createdAt,value
2017-10-05T00:02:03.453Z,11.9
2017-10-05T00:07:03.095Z,11.8
2017-10-05T00:12:02.750Z,11.9
2017-10-05T00:17:03.349Z,11.8
2017-10-05T00:22:03.055Z,12.0
2017-10-05T00:27:03.582Z,11.9
2017-10-05T00:32:03.290Z,11.9
2017-10-05T00:37:03.403Z,11.7
2017-10-05T00:42:02.843Z,11.7
2017-10-05T00:47:03.418Z,11.5
2017-10-05T00:52:03.033Z,11.5
2017-10-05T00:57:03.562Z,11.5
2017-10-05T01:02:03.162Z,11.3
2017-10-05T01:07:02.962Z,11.3
2017-10-05T01:12:03.611Z,11.2
2017-10-05T01:17:03.191Z,11.2
2017-10-05T01:22:03.168Z,11.2
2017-10-05T01:27:02.829Z,11.1
2017-10-05T01:32:03.690Z,11.1
2017-10-05T01:37:03.414Z,11.1
2017-10-05T01:42:03.126Z,11.0
2017-10-05T01:47:03.293Z,10.9
2017-10-05T01:52:02.864Z,10.9
2017-10-05T01:57:02.797Z,10.9
2017-10-05T02:02:02.751Z,10.7
2017-10-05T02:07:03.513Z,10.7
2017-10-05T02:12:03.328Z,10.6
2017-10-05T02:17:03.412Z,10.6
2017-10-05T02:22:03.126Z,10.5
2017-10-05T02:27:02.989Z,10.4
2017-10-05T02:32:02.778Z,10.5
2017-10-05T02:37:02.832Z,10.5
2017-10-05T02:42:02.972Z,10.4
2017-10-05T02:47:03.050Z,10.3
2017-10-05T02:52:03.105Z,10.1
2017-10-05T02:57:03.137Z,10.1
2017-10-05T03:02:03.246Z,10.0
2017-10-05T03:07:03.538Z,9.9
2017-10-05T03:12:02.782Z,9.9
2017-10-05T03:17:03.105Z,9.9
2017-10-05T03:22:03.226Z,9.8
2017-10-05T03:27:03.246Z,9.8
2017-10-05T03:32:03.320Z,9.8
2017-10-05T03:37:03.400Z,9.8
2017-10-05T03:42:03.504Z,9.9
2017-10-05T03:47:03.605Z,9.9
2017-10-05T03:52:02.687Z,9.8
2017-10-05T03:57:02.839Z,9.9
2017-10-05T04:02:03.062Z,9.9
2017-10-05T04:07:03.084Z,9.9
2017-10-05T04:12:03.434Z,10.0
2017-10-05T04:17:03.582Z,9.9
2017-10-05T04:22:02.699Z,9.9
2017-10-05T04:27:02.908Z,9.9
2017-10-05T04:32:03.051Z,10.0
2017-10-05T04:37:03.083Z,10.0
2017-10-05T04:42:03.107Z,9.9
2017-10-05T04:47:03.157Z,10.0
2017-10-05T04:52:03.278Z,10.0
2017-10-05T04:57:03.373Z,10.0
2017-10-05T05:02:17.446Z,10.0
2017-10-05T05:07:02.918Z,9.9
2017-10-05T05:12:03.305Z,10.1
2017-10-05T05:17:14.091Z,10.0
2017-10-05T05:22:03.616Z,10.0
2017-10-05T05:27:02.932Z,10.0
2017-10-05T05:32:13.709Z,10.0
2017-10-05T05:37:03.560Z,10.0
2017-10-05T05:42:02.668Z,10.1
2017-10-05T05:47:13.597Z,10.1
2017-10-05T05:52:03.156Z,10.3
2017-10-05T05:57:03.381Z,10.3
2017-10-05T06:02:17.900Z,10.6
2017-10-05T06:07:03.407Z,10.6
2017-10-05T06:12:02.784Z,11.0
2017-10-05T06:17:13.453Z,11.0
2017-10-05T06:22:02.799Z,11.5
2017-10-05T06:27:02.971Z,11.4
2017-10-05T06:32:17.878Z,12.0
2017-10-05T06:37:02.629Z,12.0
2017-10-05T06:42:02.841Z,12.3
2017-10-05T06:47:13.662Z,12.6
2017-10-05T06:52:02.655Z,12.8
2017-10-05T06:57:02.905Z,13.0
2017-10-05T07:02:13.613Z,13.5
2017-10-05T07:07:03.146Z,13.5
2017-10-05T07:12:03.521Z,14.0
2017-10-05T07:17:18.050Z,14.3
2017-10-05T07:22:03.442Z,14.2
2017-10-05T07:27:03.713Z,14.6
2017-10-05T07:32:13.443Z,15.2
2017-10-05T07:37:02.914Z,15.2
2017-10-05T07:42:03.165Z,15.6
2017-10-05T07:47:13.760Z,15.9
2017-10-05T07:52:02.958Z,16.3
2017-10-05T07:57:03.257Z,16.5
2017-10-05T08:02:09.618Z,16.5
2017-10-05T08:07:03.396Z,16.8
2017-10-05T08:12:02.778Z,16.9
2017-10-05T08:17:05.110Z,17.1
2017-10-05T08:22:03.446Z,17.5
2017-10-05T08:27:02.737Z,17.4
2017-10-05T08:32:13.494Z,17.8
2017-10-05T08:37:03.127Z,18.0
2017-10-05T08:42:03.348Z,18.2
2017-10-05T08:47:14.198Z,18.6
2017-10-05T08:52:02.852Z,18.5
2017-10-05T08:57:03.472Z,18.7
2017-10-05T09:02:13.073Z,18.9
2017-10-05T09:07:02.743Z,18.9
2017-10-05T09:12:02.770Z,19.0
2017-10-05T09:17:17.497Z,19.1
2017-10-05T09:22:02.704Z,19.1
2017-10-05T09:27:03.434Z,19.3
2017-10-05T09:32:06.184Z,19.3
2017-10-05T09:37:02.924Z,19.3
2017-10-05T09:42:02.744Z,19.5
2017-10-05T09:47:12.945Z,19.5
2017-10-05T09:52:02.871Z,19.8
2017-10-05T09:57:02.954Z,19.8
2017-10-05T10:02:12.043Z,19.8
2017-10-05T10:07:03.210Z,20.1
2017-10-05T10:12:03.214Z,20.2
2017-10-05T10:17:13.356Z,20.2
2017-10-05T10:22:02.738Z,20.4
2017-10-05T10:27:03.556Z,20.6
2017-10-05T10:32:17.337Z,20.6
2017-10-05T10:37:03.548Z,20.6
2017-10-05T10:42:03.434Z,20.9
2017-10-05T10:47:16.058Z,20.9
2017-10-05T10:52:02.870Z,21.0
2017-10-05T10:57:02.752Z,21.1
2017-10-05T11:02:13.558Z,21.3
2017-10-05T11:07:02.831Z,21.3
2017-10-05T11:12:03.345Z,21.5
2017-10-05T11:17:17.587Z,21.7
2017-10-05T11:22:03.395Z,22.1
2017-10-05T11:27:02.779Z,22.3
2017-10-05T11:32:13.493Z,22.1
2017-10-05T11:37:03.267Z,22.1
2017-10-05T11:42:02.710Z,21.8
2017-10-05T11:47:17.672Z,21.8
2017-10-05T11:52:02.646Z,22.1
2017-10-05T11:57:02.980Z,22.1
2017-10-05T12:02:13.421Z,22.4
2017-10-05T12:07:03.601Z,22.5
2017-10-05T12:12:03.193Z,22.5
2017-10-05T12:17:17.297Z,22.6
2017-10-05T12:22:02.828Z,22.6
2017-10-05T12:27:03.146Z,22.9
2017-10-05T12:32:13.499Z,23.3
2017-10-05T12:37:02.747Z,23.2
2017-10-05T12:42:03.001Z,23.0
2017-10-05T12:47:17.309Z,21.5
2017-10-05T12:52:03.304Z,21.0
2017-10-05T12:57:03.520Z,20.9
2017-10-05T13:02:08.440Z,20.6
2017-10-05T13:07:03.191Z,20.5
2017-10-05T13:12:03.565Z,20.4
2017-10-05T13:17:13.180Z,20.2
2017-10-05T13:22:02.977Z,20.1
2017-10-05T13:27:03.223Z,19.7
2017-10-05T13:32:13.123Z,19.4
2017-10-05T13:37:03.101Z,19.0
2017-10-05T13:42:03.321Z,18.7
2017-10-05T13:47:14.095Z,18.6
2017-10-05T13:52:02.709Z,18.2
2017-10-05T13:57:02.964Z,18.2
2017-10-05T14:02:23.059Z,17.8
2017-10-05T14:07:03.622Z,17.4
2017-10-05T14:12:02.957Z,17.4
2017-10-05T14:17:13.791Z,17.3
2017-10-05T14:22:03.363Z,17.1
2017-10-05T14:27:03.524Z,17.1
2017-10-05T14:32:12.812Z,17.0
2017-10-05T14:37:02.656Z,16.9
2017-10-05T14:42:02.871Z,16.9
2017-10-05T14:47:13.722Z,16.9
2017-10-05T14:52:03.292Z,16.9
2017-10-05T14:57:03.393Z,16.8
2017-10-05T15:02:13.223Z,16.5
2017-10-05T15:07:03.434Z,16.3
2017-10-05T15:12:02.702Z,16.3
2017-10-05T15:17:13.112Z,16.3
2017-10-05T15:22:03.327Z,16.2
2017-10-05T15:27:03.437Z,16.0
2017-10-05T15:32:17.329Z,16.0
2017-10-05T15:37:02.863Z,15.9
2017-10-05T15:42:03.128Z,15.9
2017-10-05T15:47:13.413Z,15.6
2017-10-05T15:52:02.796Z,15.2
2017-10-05T15:57:03.188Z,15.2
2017-10-05T16:02:13.820Z,15.1
2017-10-05T16:07:03.040Z,15.0
2017-10-05T16:12:03.445Z,14.8
2017-10-05T16:17:17.586Z,14.7
2017-10-05T16:22:03.268Z,14.6
2017-10-05T16:27:03.464Z,14.6
2017-10-05T16:32:13.111Z,14.5
2017-10-05T16:37:03.271Z,14.5
2017-10-05T16:42:03.008Z,14.5
2017-10-05T16:47:15.956Z,14.3
2017-10-05T16:52:02.698Z,14.3
2017-10-05T16:57:03.016Z,14.3
2017-10-05T17:02:13.753Z,14.3
2017-10-05T17:07:02.803Z,14.3
2017-10-05T17:12:03.294Z,14.4
2017-10-05T17:17:12.372Z,14.4
2017-10-05T17:22:03.303Z,14.4
2017-10-05T17:27:03.446Z,14.4
2017-10-05T17:32:03.481Z,14.4
2017-10-05T17:37:02.693Z,14.4
2017-10-05T17:42:02.846Z,14.5
2017-10-05T17:47:03.030Z,14.4
2017-10-05T17:52:03.037Z,14.4
2017-10-05T17:57:03.167Z,14.4
2017-10-05T18:02:03.271Z,14.3
2017-10-05T18:07:03.493Z,14.3
2017-10-05T18:12:02.825Z,14.3
2017-10-05T18:17:03.177Z,14.3
2017-10-05T18:22:03.158Z,14.2
2017-10-05T18:27:03.219Z,14.2
2017-10-05T18:32:03.339Z,14.2
2017-10-05T18:37:03.463Z,14.2
2017-10-05T18:42:03.451Z,14.0
2017-10-05T18:47:03.679Z,13.6
2017-10-05T18:52:02.762Z,13.5
2017-10-05T18:57:02.934Z,13.1
2017-10-05T19:02:03.023Z,12.4
2017-10-05T19:07:03.216Z,12.4
2017-10-05T19:12:03.423Z,12.2
2017-10-05T19:17:03.673Z,12.0
2017-10-05T19:22:02.805Z,12.0
2017-10-05T19:27:03.004Z,12.0
2017-10-05T19:32:03.183Z,12.0
2017-10-05T19:37:03.158Z,12.0
2017-10-05T19:42:03.174Z,12.1
2017-10-05T19:47:03.322Z,12.1
2017-10-05T19:52:03.447Z,12.2
2017-10-05T19:57:03.538Z,12.2
2017-10-05T20:02:02.691Z,12.0
2017-10-05T20:07:03.150Z,12.0
2017-10-05T20:12:03.272Z,12.0
2017-10-05T20:17:03.391Z,11.8
2017-10-05T20:22:03.572Z,11.6
2017-10-05T20:27:03.613Z,11.6
2017-10-05T20:32:02.923Z,11.4
2017-10-05T20:37:02.992Z,11.4
2017-10-05T20:42:03.097Z,11.3
2017-10-05T20:47:03.435Z,11.2
2017-10-05T20:52:03.234Z,11.1
2017-10-05T20:57:03.371Z,11.0
2017-10-05T21:02:03.537Z,10.9
2017-10-05T21:07:02.959Z,10.8
2017-10-05T21:12:03.117Z,10.8
2017-10-05T21:17:03.196Z,10.8
2017-10-05T21:22:03.365Z,10.6
2017-10-05T21:27:03.387Z,10.4
2017-10-05T21:32:03.497Z,10.4
2017-10-05T21:37:04.037Z,10.4
2017-10-05T21:42:02.735Z,10.3
2017-10-05T21:47:03.034Z,10.3
2017-10-05T21:52:03.125Z,10.3
2017-10-05T21:57:03.172Z,10.2
2017-10-05T22:02:03.387Z,10.1
2017-10-05T22:07:03.220Z,10.1
2017-10-05T22:12:03.341Z,10.0
2017-10-05T22:22:03.653Z,9.8
2017-10-05T22:27:03.048Z,9.8
2017-10-05T22:32:03.594Z,9.7
2017-10-05T22:37:03.085Z,9.6
2017-10-05T22:42:02.960Z,9.6
2017-10-05T22:47:03.525Z,9.6
2017-10-05T22:52:03.228Z,9.5
2017-10-05T22:57:02.913Z,9.5
2017-10-05T23:02:03.575Z,9.4
2017-10-05T23:07:03.369Z,9.4
2017-10-05T23:12:03.214Z,9.5
2017-10-05T23:17:03.053Z,9.5
2017-10-05T23:22:03.033Z,9.5
2017-10-05T23:27:02.828Z,9.6
2017-10-05T23:32:03.409Z,9.6
2017-10-05T23:37:03.424Z,9.6
2017-10-05T23:42:03.062Z,9.6
2017-10-05T23:47:03.650Z,9.6
2017-10-05T23:52:02.728Z,9.6
2017-10-05T23:57:03.322Z,9.6
